Suffolk, Texas
Current Conditions -  °F | °C
As of 8:15 PM on Monday 22 Dec 2014 (Local Time) from KOSA Reporting Station
Clear Clear  
Wind Chill: 58°   Ceiling: Unl
Heat Index: 58°   Visibility: 10mi
Dew Point: 46°   Wind: 5mph
Humidity: 64%   Direction: 320°NW
Pressure: 29.67"   Gusts: NA
Location:  32.7353°N, 94.9492°W
Report Text: KOSA 230215Z AUTO 32004KT 10SM CLR 15/08 A2967 RMK AO1 T01460078
Loading
Personal Weather Stations






























Interactive Weather Map New forecast layout! Learn more

10-Day Weather Forecast

Advertisements
Track Severe Weather on mobile